sensor_id;sensor_type;location;lat;lon;timestamp;pressure;altitude;pressure_sealevel;temperature;humidity
31239;BME280;17871;31.584;74.450;2023-02-28T00:01:56;98979.41;;;21.79;69.93
31239;BME280;17871;31.584;74.450;2023-02-28T00:04:24;98986.56;;;21.71;70.20
31239;BME280;17871;31.584;74.450;2023-02-28T00:06:53;98997.44;;;21.85;67.20
31239;BME280;17871;31.584;74.450;2023-02-28T00:09:22;98994.16;;;21.79;68.11
31239;BME280;17871;31.584;74.450;2023-02-28T00:11:51;99005.19;;;21.87;67.87
31239;BME280;17871;31.584;74.450;2023-02-28T00:14:21;99032.00;;;21.92;64.16
31239;BME280;17871;31.584;74.450;2023-02-28T00:16:50;99036.06;;;22.00;63.65
31239;BME280;17871;31.584;74.450;2023-02-28T00:19:19;99022.47;;;22.20;62.50
31239;BME280;17871;31.584;74.450;2023-02-28T00:21:48;99002.81;;;22.39;60.72
31239;BME280;17871;31.584;74.450;2023-02-28T00:24:16;99008.59;;;22.49;61.32
31239;BME280;17871;31.584;74.450;2023-02-28T00:26:46;99022.31;;;22.54;62.80
31239;BME280;17871;31.584;74.450;2023-02-28T00:29:14;99025.16;;;22.46;63.30
31239;BME280;17871;31.584;74.450;2023-02-28T00:31:44;99034.78;;;22.44;63.75
31239;BME280;17871;31.584;74.450;2023-02-28T00:34:12;99043.06;;;22.29;62.84
31239;BME280;17871;31.584;74.450;2023-02-28T00:36:41;99043.31;;;22.20;63.18
31239;BME280;17871;31.584;74.450;2023-02-28T00:39:14;99041.25;;;22.31;65.81
31239;BME280;17871;31.584;74.450;2023-02-28T00:41:43;99029.84;;;22.06;66.08
31239;BME280;17871;31.584;74.450;2023-02-28T00:44:13;99039.53;;;22.01;66.99
31239;BME280;17871;31.584;74.450;2023-02-28T00:46:42;99064.06;;;21.92;67.14
31239;BME280;17871;31.584;74.450;2023-02-28T00:49:11;99089.56;;;21.80;69.05
31239;BME280;17871;31.584;74.450;2023-02-28T00:51:41;99126.75;;;21.49;71.13
31239;BME280;17871;31.584;74.450;2023-02-28T00:54:11;99118.00;;;21.53;70.98
31239;BME280;17871;31.584;74.450;2023-02-28T00:56:40;99107.59;;;21.53;70.82
31239;BME280;17871;31.584;74.450;2023-02-28T00:59:09;99119.69;;;21.54;70.07
31239;BME280;17871;31.584;74.450;2023-02-28T01:01:40;99140.63;;;21.50;70.33
31239;BME280;17871;31.584;74.450;2023-02-28T01:04:15;99155.13;;;21.58;69.10
31239;BME280;17871;31.584;74.450;2023-02-28T01:06:46;99171.16;;;21.42;70.27
31239;BME280;17871;31.584;74.450;2023-02-28T01:09:17;99187.06;;;21.30;70.66
31239;BME280;17871;31.584;74.450;2023-02-28T01:11:46;99195.09;;;21.17;72.86
31239;BME280;17871;31.584;74.450;2023-02-28T01:14:18;99200.56;;;21.05;74.86
31239;BME280;17871;31.584;74.450;2023-02-28T01:16:48;99194.13;;;20.82;77.62
31239;BME280;17871;31.584;74.450;2023-02-28T01:19:18;99201.47;;;20.64;78.39
31239;BME280;17871;31.584;74.450;2023-02-28T01:21:49;99204.88;;;20.65;79.03
31239;BME280;17871;31.584;74.450;2023-02-28T01:24:20;99234.56;;;20.53;79.76
31239;BME280;17871;31.584;74.450;2023-02-28T01:26:50;99229.25;;;20.59;80.25
31239;BME280;17871;31.584;74.450;2023-02-28T01:29:21;99235.63;;;20.43;80.37
31239;BME280;17871;31.584;74.450;2023-02-28T01:31:52;99229.75;;;20.34;80.88
31239;BME280;17871;31.584;74.450;2023-02-28T01:34:22;99233.31;;;20.28;81.22
31239;BME280;17871;31.584;74.450;2023-02-28T01:36:52;99230.81;;;20.20;81.61
31239;BME280;17871;31.584;74.450;2023-02-28T01:39:22;99234.28;;;20.21;81.33
31239;BME280;17871;31.584;74.450;2023-02-28T01:41:52;99257.72;;;20.16;81.85
31239;BME280;17871;31.584;74.450;2023-02-28T01:44:59;99256.34;;;20.46;82.11
31239;BME280;17871;31.584;74.450;2023-02-28T01:47:38;99278.31;;;20.27;82.25
31239;BME280;17871;31.584;74.450;2023-02-28T01:50:14;99281.00;;;20.21;82.81
31239;BME280;17871;31.584;74.450;2023-02-28T01:52:46;99299.41;;;20.06;82.88
31239;BME280;17871;31.584;74.450;2023-02-28T01:55:18;99302.91;;;20.05;82.92
31239;BME280;17871;31.584;74.450;2023-02-28T01:57:52;99294.97;;;20.12;83.17
31239;BME280;17871;31.584;74.450;2023-02-28T02:00:28;99281.22;;;20.07;83.51
31239;BME280;17871;31.584;74.450;2023-02-28T02:03:11;99276.84;;;20.11;83.17
31239;BME280;17871;31.584;74.450;2023-02-28T02:05:44;99273.72;;;19.91;83.44
31239;BME280;17871;31.584;74.450;2023-02-28T02:08:21;99263.06;;;20.07;83.01
31239;BME280;17871;31.584;74.450;2023-02-28T02:11:01;99254.31;;;20.13;82.70
31239;BME280;17871;31.584;74.450;2023-02-28T02:20:11;99263.81;;;20.14;81.90
31239;BME280;17871;31.584;74.450;2023-02-28T02:23:08;99250.84;;;20.14;82.67
31239;BME280;17871;31.584;74.450;2023-02-28T02:25:50;99250.09;;;20.07;82.64
31239;BME280;17871;31.584;74.450;2023-02-28T02:37:03;99280.06;;;20.27;80.56
31239;BME280;17871;31.584;74.450;2023-02-28T02:42:42;99300.69;;;20.34;80.89
31239;BME280;17871;31.584;74.450;2023-02-28T02:45:22;99304.53;;;20.12;81.38
31239;BME280;17871;31.584;74.450;2023-02-28T02:47:57;99302.63;;;20.20;81.31
31239;BME280;17871;31.584;74.450;2023-02-28T02:50:35;99298.91;;;20.36;80.75
31239;BME280;17871;31.584;74.450;2023-02-28T02:53:07;99305.13;;;20.26;79.99
31239;BME280;17871;31.584;74.450;2023-02-28T02:55:41;99316.91;;;20.47;79.39
31239;BME280;17871;31.584;74.450;2023-02-28T02:58:20;99335.03;;;20.51;78.56
31239;BME280;17871;31.584;74.450;2023-02-28T03:00:56;99345.72;;;20.81;78.24
31239;BME280;17871;31.584;74.450;2023-02-28T03:03:28;99362.91;;;20.88;77.53
31239;BME280;17871;31.584;74.450;2023-02-28T03:06:00;99358.13;;;20.65;77.08
31239;BME280;17871;31.584;74.450;2023-02-28T03:08:35;99365.16;;;21.04;76.22
31239;BME280;17871;31.584;74.450;2023-02-28T03:11:09;99352.28;;;20.98;75.71
31239;BME280;17871;31.584;74.450;2023-02-28T03:16:54;99358.66;;;21.28;75.99
31239;BME280;17871;31.584;74.450;2023-02-28T03:19:38;99373.31;;;21.32;75.92
31239;BME280;17871;31.584;74.450;2023-02-28T03:31:48;99384.09;;;21.55;76.69
31239;BME280;17871;31.584;74.450;2023-02-28T03:34:36;99392.53;;;21.66;75.79
31239;BME280;17871;31.584;74.450;2023-02-28T03:37:13;99392.47;;;21.69;75.11
31239;BME280;17871;31.584;74.450;2023-02-28T03:39:49;99396.69;;;21.73;75.66
31239;BME280;17871;31.584;74.450;2023-02-28T03:42:24;99393.78;;;21.87;73.52
31239;BME280;17871;31.584;74.450;2023-02-28T03:45:01;99404.88;;;21.97;74.20
31239;BME280;17871;31.584;74.450;2023-02-28T03:47:41;99398.00;;;21.96;72.27
31239;BME280;17871;31.584;74.450;2023-02-28T03:50:29;99402.75;;;22.14;71.75
31239;BME280;17871;31.584;74.450;2023-02-28T03:55:49;99399.81;;;22.29;71.60
31239;BME280;17871;31.584;74.450;2023-02-28T04:01:21;99388.56;;;22.27;71.81
31239;BME280;17871;31.584;74.450;2023-02-28T04:03:53;99392.91;;;22.27;72.14
31239;BME280;17871;31.584;74.450;2023-02-28T04:06:24;99385.16;;;22.25;70.81
31239;BME280;17871;31.584;74.450;2023-02-28T04:08:53;99377.09;;;22.34;70.43
31239;BME280;17871;31.584;74.450;2023-02-28T04:11:32;99370.63;;;22.50;69.93
31239;BME280;17871;31.584;74.450;2023-02-28T04:14:05;99378.06;;;22.30;69.47
31239;BME280;17871;31.584;74.450;2023-02-28T04:16:38;99376.31;;;22.31;69.64
31239;BME280;17871;31.584;74.450;2023-02-28T04:19:11;99384.41;;;22.55;69.63
31239;BME280;17871;31.584;74.450;2023-02-28T04:21:52;99375.56;;;22.61;69.38
31239;BME280;17871;31.584;74.450;2023-02-28T04:24:27;99389.44;;;22.61;70.20
31239;BME280;17871;31.584;74.450;2023-02-28T04:26:57;99383.63;;;22.86;70.20
31239;BME280;17871;31.584;74.450;2023-02-28T04:29:30;99383.53;;;22.89;69.70
31239;BME280;17871;31.584;74.450;2023-02-28T04:32:01;99387.88;;;22.54;69.22
31239;BME280;17871;31.584;74.450;2023-02-28T04:34:32;99383.53;;;22.55;69.85
31239;BME280;17871;31.584;74.450;2023-02-28T04:37:01;99382.22;;;22.72;68.61
31239;BME280;17871;31.584;74.450;2023-02-28T04:39:41;99384.88;;;22.71;67.39
31239;BME280;17871;31.584;74.450;2023-02-28T04:42:11;99391.66;;;22.78;67.89
31239;BME280;17871;31.584;74.450;2023-02-28T04:44:41;99388.34;;;22.71;67.71
31239;BME280;17871;31.584;74.450;2023-02-28T04:47:09;99395.88;;;22.82;67.75
31239;BME280;17871;31.584;74.450;2023-02-28T04:49:38;99396.97;;;23.06;68.47
31239;BME280;17871;31.584;74.450;2023-02-28T04:52:10;99404.16;;;22.98;68.58
31239;BME280;17871;31.584;74.450;2023-02-28T04:54:38;99401.19;;;23.11;68.70
31239;BME280;17871;31.584;74.450;2023-02-28T04:57:08;99404.41;;;23.21;68.39
31239;BME280;17871;31.584;74.450;2023-02-28T04:59:37;99407.31;;;23.09;67.42
31239;BME280;17871;31.584;74.450;2023-02-28T05:02:06;99398.56;;;23.44;67.50
31239;BME280;17871;31.584;74.450;2023-02-28T05:04:35;99395.53;;;23.26;67.39
31239;BME280;17871;31.584;74.450;2023-02-28T05:07:04;99402.22;;;23.37;67.18
31239;BME280;17871;31.584;74.450;2023-02-28T05:09:33;99408.63;;;23.56;66.10
31239;BME280;17871;31.584;74.450;2023-02-28T05:12:03;99405.84;;;23.62;66.68
31239;BME280;17871;31.584;74.450;2023-02-28T05:14:31;99406.09;;;23.82;65.98
31239;BME280;17871;31.584;74.450;2023-02-28T05:17:00;99404.38;;;23.81;66.52
31239;BME280;17871;31.584;74.450;2023-02-28T05:19:29;99410.47;;;23.82;65.16
31239;BME280;17871;31.584;74.450;2023-02-28T05:21:58;99415.34;;;23.94;63.65
31239;BME280;17871;31.584;74.450;2023-02-28T05:24:27;99411.44;;;24.07;63.76
31239;BME280;17871;31.584;74.450;2023-02-28T05:26:56;99420.28;;;24.03;62.70
31239;BME280;17871;31.584;74.450;2023-02-28T05:29:26;99414.22;;;24.30;63.40
31239;BME280;17871;31.584;74.450;2023-02-28T05:31:55;99417.13;;;24.47;63.68
31239;BME280;17871;31.584;74.450;2023-02-28T05:34:24;99414.91;;;24.61;62.02
31239;BME280;17871;31.584;74.450;2023-02-28T05:36:53;99414.72;;;24.67;61.94
31239;BME280;17871;31.584;74.450;2023-02-28T05:39:21;99425.88;;;24.46;59.91
31239;BME280;17871;31.584;74.450;2023-02-28T05:41:51;99413.19;;;24.60;60.61
31239;BME280;17871;31.584;74.450;2023-02-28T05:44:19;99420.78;;;24.68;61.42
31239;BME280;17871;31.584;74.450;2023-02-28T05:46:48;99412.50;;;24.82;60.25
31239;BME280;17871;31.584;74.450;2023-02-28T05:49:17;99418.91;;;24.73;61.13
31239;BME280;17871;31.584;74.450;2023-02-28T05:51:46;99424.97;;;24.73;59.37
31239;BME280;17871;31.584;74.450;2023-02-28T05:54:15;99427.88;;;24.64;58.35
31239;BME280;17871;31.584;74.450;2023-02-28T05:56:44;99429.34;;;24.73;58.33
31239;BME280;17871;31.584;74.450;2023-02-28T05:59:14;99425.34;;;24.89;58.37
31239;BME280;17871;31.584;74.450;2023-02-28T06:01:44;99424.66;;;25.09;57.32
31239;BME280;17871;31.584;74.450;2023-02-28T06:04:19;99419.63;;;25.03;58.61
31239;BME280;17871;31.584;74.450;2023-02-28T06:06:58;99413.06;;;24.91;59.24
31239;BME280;17871;31.584;74.450;2023-02-28T06:09:27;99406.22;;;25.12;60.17
31239;BME280;17871;31.584;74.450;2023-02-28T06:12:01;99405.94;;;25.19;58.97
31239;BME280;17871;31.584;74.450;2023-02-28T06:14:33;99395.44;;;25.21;59.39
31239;BME280;17871;31.584;74.450;2023-02-28T06:17:03;99402.19;;;25.26;60.15
31239;BME280;17871;31.584;74.450;2023-02-28T06:19:32;99401.41;;;25.24;58.61
31239;BME280;17871;31.584;74.450;2023-02-28T06:22:01;99399.75;;;25.22;58.97
31239;BME280;17871;31.584;74.450;2023-02-28T06:24:30;99394.34;;;25.26;58.42
31239;BME280;17871;31.584;74.450;2023-02-28T06:26:59;99392.59;;;25.27;56.17
31239;BME280;17871;31.584;74.450;2023-02-28T06:29:36;99383.25;;;25.20;56.42
31239;BME280;17871;31.584;74.450;2023-02-28T06:32:08;99371.09;;;25.19;56.26
31239;BME280;17871;31.584;74.450;2023-02-28T06:34:37;99369.38;;;25.18;56.35
31239;BME280;17871;31.584;74.450;2023-02-28T06:37:06;99371.25;;;25.14;55.12
31239;BME280;17871;31.584;74.450;2023-02-28T06:39:35;99372.38;;;25.07;55.42
31239;BME280;17871;31.584;74.450;2023-02-28T06:42:04;99364.22;;;24.92;55.06
31239;BME280;17871;31.584;74.450;2023-02-28T06:44:33;99361.75;;;25.12;54.11
31239;BME280;17871;31.584;74.450;2023-02-28T06:47:06;99369.66;;;25.34;54.17
31239;BME280;17871;31.584;74.450;2023-02-28T06:49:36;99372.59;;;25.01;54.40
31239;BME280;17871;31.584;74.450;2023-02-28T06:52:05;99379.41;;;24.82;55.01
31239;BME280;17871;31.584;74.450;2023-02-28T06:54:35;99365.53;;;24.78;55.70
31239;BME280;17871;31.584;74.450;2023-02-28T06:57:05;99375.38;;;24.70;54.86
31239;BME280;17871;31.584;74.450;2023-02-28T06:59:33;99383.13;;;24.73;55.10
31239;BME280;17871;31.584;74.450;2023-02-28T07:02:03;99386.44;;;24.78;56.04
31239;BME280;17871;31.584;74.450;2023-02-28T07:04:34;99377.63;;;24.83;55.99
31239;BME280;17871;31.584;74.450;2023-02-28T07:07:03;99376.66;;;24.85;56.35
31239;BME280;17871;31.584;74.450;2023-02-28T07:09:32;99376.97;;;25.01;56.43
31239;BME280;17871;31.584;74.450;2023-02-28T07:12:01;99380.59;;;24.97;57.18
31239;BME280;17871;31.584;74.450;2023-02-28T07:14:30;99376.00;;;24.78;56.95
31239;BME280;17871;31.584;74.450;2023-02-28T07:16:59;99367.66;;;24.67;56.51
31239;BME280;17871;31.584;74.450;2023-02-28T07:19:29;99366.50;;;24.76;57.20
31239;BME280;17871;31.584;74.450;2023-02-28T07:21:59;99366.31;;;24.80;57.15
31239;BME280;17871;31.584;74.450;2023-02-28T07:24:28;99367.09;;;24.84;57.47
31239;BME280;17871;31.584;74.450;2023-02-28T07:26:57;99369.94;;;24.76;58.07
31239;BME280;17871;31.584;74.450;2023-02-28T07:29:27;99364.94;;;24.70;58.56
31239;BME280;17871;31.584;74.450;2023-02-28T07:31:56;99370.06;;;24.73;59.21
31239;BME280;17871;31.584;74.450;2023-02-28T07:34:27;99374.38;;;24.74;59.55
31239;BME280;17871;31.584;74.450;2023-02-28T07:36:56;99359.59;;;24.73;60.02
31239;BME280;17871;31.584;74.450;2023-02-28T07:39:25;99368.25;;;24.75;60.02
31239;BME280;17871;31.584;74.450;2023-02-28T07:41:54;99360.19;;;24.82;60.09
31239;BME280;17871;31.584;74.450;2023-02-28T07:44:26;99358.41;;;24.84;60.67
31239;BME280;17871;31.584;74.450;2023-02-28T07:46:55;99357.28;;;24.91;60.98
31239;BME280;17871;31.584;74.450;2023-02-28T07:49:24;99349.88;;;24.77;61.33
31239;BME280;17871;31.584;74.450;2023-02-28T07:51:53;99337.69;;;24.77;61.00
31239;BME280;17871;31.584;74.450;2023-02-28T07:54:22;99330.91;;;24.72;61.37
31239;BME280;17871;31.584;74.450;2023-02-28T07:56:51;99335.13;;;24.76;61.68
31239;BME280;17871;31.584;74.450;2023-02-28T07:59:20;99332.56;;;24.74;62.07
31239;BME280;17871;31.584;74.450;2023-02-28T08:01:49;99327.44;;;24.71;62.39
31239;BME280;17871;31.584;74.450;2023-02-28T08:04:19;99319.91;;;24.62;62.70
31239;BME280;17871;31.584;74.450;2023-02-28T08:06:48;99321.19;;;24.75;62.98
31239;BME280;17871;31.584;74.450;2023-02-28T08:09:20;99308.66;;;24.60;63.22
31239;BME280;17871;31.584;74.450;2023-02-28T08:11:49;99303.13;;;24.69;63.33
31239;BME280;17871;31.584;74.450;2023-02-28T08:14:18;99297.56;;;24.54;63.21
31239;BME280;17871;31.584;74.450;2023-02-28T08:16:47;99292.44;;;24.51;63.20
31239;BME280;17871;31.584;74.450;2023-02-28T08:19:16;99279.19;;;24.80;62.59
31239;BME280;17871;31.584;74.450;2023-02-28T08:21:59;99273.31;;;24.73;61.89
31239;BME280;17871;31.584;74.450;2023-02-28T08:24:29;99263.78;;;24.72;60.82
31239;BME280;17871;31.584;74.450;2023-02-28T08:26:57;99250.50;;;24.78;60.79
31239;BME280;17871;31.584;74.450;2023-02-28T08:29:26;99246.31;;;24.98;60.30
31239;BME280;17871;31.584;74.450;2023-02-28T08:31:55;99228.59;;;24.83;58.79
31239;BME280;17871;31.584;74.450;2023-02-28T08:34:25;99220.75;;;24.83;58.05
31239;BME280;17871;31.584;74.450;2023-02-28T08:36:54;99211.06;;;24.85;57.13
31239;BME280;17871;31.584;74.450;2023-02-28T08:39:23;99212.34;;;24.96;57.44
31239;BME280;17871;31.584;74.450;2023-02-28T08:41:52;99208.84;;;24.97;56.62
31239;BME280;17871;31.584;74.450;2023-02-28T08:44:33;99207.66;;;25.06;55.17
31239;BME280;17871;31.584;74.450;2023-02-28T08:47:03;99191.72;;;25.12;56.32
31239;BME280;17871;31.584;74.450;2023-02-28T08:49:32;99195.38;;;25.29;55.99
31239;BME280;17871;31.584;74.450;2023-02-28T08:52:01;99187.47;;;25.53;55.42
31239;BME280;17871;31.584;74.450;2023-02-28T08:54:30;99181.13;;;25.15;53.81
31239;BME280;17871;31.584;74.450;2023-02-28T08:57:00;99171.50;;;25.37;54.54
31239;BME280;17871;31.584;74.450;2023-02-28T08:59:30;99162.38;;;25.47;53.31
31239;BME280;17871;31.584;74.450;2023-02-28T09:01:59;99164.09;;;25.48;52.98
31239;BME280;17871;31.584;74.450;2023-02-28T09:04:29;99157.41;;;25.41;52.11
31239;BME280;17871;31.584;74.450;2023-02-28T09:07:00;99157.41;;;25.41;51.70
31239;BME280;17871;31.584;74.450;2023-02-28T09:09:29;99142.38;;;25.24;51.14
31239;BME280;17871;31.584;74.450;2023-02-28T09:11:58;99155.56;;;25.43;51.01
31239;BME280;17871;31.584;74.450;2023-02-28T09:14:27;99154.38;;;25.52;52.30
31239;BME280;17871;31.584;74.450;2023-02-28T09:16:57;99154.69;;;25.43;52.57
31239;BME280;17871;31.584;74.450;2023-02-28T09:19:26;99154.09;;;25.36;52.39
31239;BME280;17871;31.584;74.450;2023-02-28T09:21:55;99149.28;;;25.47;52.68
31239;BME280;17871;31.584;74.450;2023-02-28T09:24:24;99138.22;;;25.41;53.01
31239;BME280;17871;31.584;74.450;2023-02-28T09:26:53;99147.19;;;25.35;52.96
31239;BME280;17871;31.584;74.450;2023-02-28T09:29:33;99135.78;;;25.36;54.75
31239;BME280;17871;31.584;74.450;2023-02-28T09:32:02;99136.25;;;25.25;55.40
31239;BME280;17871;31.584;74.450;2023-02-28T09:34:34;99132.84;;;25.02;54.31
31239;BME280;17871;31.584;74.450;2023-02-28T09:37:07;99121.50;;;25.01;54.21
31239;BME280;17871;31.584;74.450;2023-02-28T09:39:37;99124.91;;;25.25;53.90
31239;BME280;17871;31.584;74.450;2023-02-28T09:42:06;99121.38;;;25.26;53.91
31239;BME280;17871;31.584;74.450;2023-02-28T09:44:44;99112.84;;;25.43;54.10
31239;BME280;17871;31.584;74.450;2023-02-28T09:47:39;99118.56;;;25.52;54.16
31239;BME280;17871;31.584;74.450;2023-02-28T09:50:35;99120.69;;;25.43;54.31
31239;BME280;17871;31.584;74.450;2023-02-28T09:53:36;99114.91;;;25.56;54.07
31239;BME280;17871;31.584;74.450;2023-02-28T09:56:08;99113.22;;;25.55;54.53
31239;BME280;17871;31.584;74.450;2023-02-28T09:58:46;99099.16;;;25.58;54.26
31239;BME280;17871;31.584;74.450;2023-02-28T10:07:49;99086.97;;;25.57;55.00
31239;BME280;17871;31.584;74.450;2023-02-28T10:10:28;99075.91;;;25.70;55.81
31239;BME280;17871;31.584;74.450;2023-02-28T10:13:02;99084.44;;;25.55;55.86
31239;BME280;17871;31.584;74.450;2023-02-28T10:15:35;99082.34;;;25.21;54.28
31239;BME280;17871;31.584;74.450;2023-02-28T10:18:12;99081.34;;;25.24;53.22
31239;BME280;17871;31.584;74.450;2023-02-28T10:20:44;99070.88;;;25.24;53.04
31239;BME280;17871;31.584;74.450;2023-02-28T10:23:31;99070.75;;;25.27;51.72
31239;BME280;17871;31.584;74.450;2023-02-28T10:26:21;99064.16;;;25.18;51.53
31239;BME280;17871;31.584;74.450;2023-02-28T10:28:53;99058.97;;;25.17;52.05
31239;BME280;17871;31.584;74.450;2023-02-28T10:31:22;99056.06;;;25.03;51.52
31239;BME280;17871;31.584;74.450;2023-02-28T10:33:53;99050.09;;;25.21;51.97
31239;BME280;17871;31.584;74.450;2023-02-28T10:36:22;99045.84;;;25.18;52.47
31239;BME280;17871;31.584;74.450;2023-02-28T10:38:51;99046.56;;;25.00;52.96
31239;BME280;17871;31.584;74.450;2023-02-28T10:41:29;99046.31;;;25.28;52.83
31239;BME280;17871;31.584;74.450;2023-02-28T10:44:29;99049.78;;;25.28;52.66
31239;BME280;17871;31.584;74.450;2023-02-28T10:46:58;99052.81;;;25.18;52.38
31239;BME280;17871;31.584;74.450;2023-02-28T10:49:29;99038.63;;;25.23;52.95
31239;BME280;17871;31.584;74.450;2023-02-28T10:52:00;99048.38;;;25.20;52.43
31239;BME280;17871;31.584;74.450;2023-02-28T10:54:35;99048.09;;;25.26;52.10
31239;BME280;17871;31.584;74.450;2023-02-28T10:57:19;99041.19;;;25.25;52.89
31239;BME280;17871;31.584;74.450;2023-02-28T10:59:53;99046.81;;;25.16;52.63
31239;BME280;17871;31.584;74.450;2023-02-28T11:02:35;99039.28;;;25.08;51.89
31239;BME280;17871;31.584;74.450;2023-02-28T11:05:29;99042.88;;;25.26;51.32
31239;BME280;17871;31.584;74.450;2023-02-28T11:08:18;99047.63;;;25.38;51.84
31239;BME280;17871;31.584;74.450;2023-02-28T11:10:54;99041.31;;;25.22;53.20
31239;BME280;17871;31.584;74.450;2023-02-28T11:13:36;99042.66;;;25.32;52.84
31239;BME280;17871;31.584;74.450;2023-02-28T11:16:11;99038.50;;;25.26;53.00
31239;BME280;17871;31.584;74.450;2023-02-28T11:21:23;99039.50;;;25.24;52.58
31239;BME280;17871;31.584;74.450;2023-02-28T11:24:04;99037.56;;;25.07;53.09
31239;BME280;17871;31.584;74.450;2023-02-28T11:26:43;99039.06;;;25.13;53.53
31239;BME280;17871;31.584;74.450;2023-02-28T11:29:19;99036.31;;;24.96;54.04
31239;BME280;17871;31.584;74.450;2023-02-28T11:32:13;99041.28;;;25.02;54.16
31239;BME280;17871;31.584;74.450;2023-02-28T11:34:46;99044.72;;;24.80;54.35
31239;BME280;17871;31.584;74.450;2023-02-28T11:37:18;99040.88;;;24.91;54.50
31239;BME280;17871;31.584;74.450;2023-02-28T11:39:48;99039.25;;;24.88;55.01
31239;BME280;17871;31.584;74.450;2023-02-28T11:47:58;99027.34;;;24.58;55.53
31239;BME280;17871;31.584;74.450;2023-02-28T11:50:58;99031.56;;;24.84;55.68
31239;BME280;17871;31.584;74.450;2023-02-28T11:56:24;99029.41;;;24.50;56.54
31239;BME280;17871;31.584;74.450;2023-02-28T11:59:33;99023.47;;;24.68;56.91
31239;BME280;17871;31.584;74.450;2023-02-28T12:08:08;99017.00;;;24.33;59.65
31239;BME280;17871;31.584;74.450;2023-02-28T12:22:23;99001.66;;;24.24;61.29
31239;BME280;17871;31.584;74.450;2023-02-28T12:27:41;99025.47;;;24.16;61.91
31239;BME280;17871;31.584;74.450;2023-02-28T12:30:38;99040.06;;;24.22;62.19
31239;BME280;17871;31.584;74.450;2023-02-28T12:33:13;99039.56;;;24.11;62.43
31239;BME280;17871;31.584;74.450;2023-02-28T12:35:49;99051.84;;;24.09;62.68
31239;BME280;17871;31.584;74.450;2023-02-28T12:38:23;99058.31;;;23.99;63.33
31239;BME280;17871;31.584;74.450;2023-02-28T12:40:59;99062.03;;;23.92;63.34
31239;BME280;17871;31.584;74.450;2023-02-28T12:43:36;99052.34;;;23.95;63.73
31239;BME280;17871;31.584;74.450;2023-02-28T12:46:23;99059.63;;;23.87;64.05
31239;BME280;17871;31.584;74.450;2023-02-28T12:48:57;99057.28;;;23.80;64.49
31239;BME280;17871;31.584;74.450;2023-02-28T12:51:28;99057.81;;;23.64;64.97
31239;BME280;17871;31.584;74.450;2023-02-28T12:57:15;99050.03;;;23.63;64.66
31239;BME280;17871;31.584;74.450;2023-02-28T12:59:56;99053.81;;;23.54;65.75
31239;BME280;17871;31.584;74.450;2023-02-28T13:03:12;99051.50;;;23.45;66.95
31239;BME280;17871;31.584;74.450;2023-02-28T13:11:41;99050.28;;;23.29;66.50
31239;BME280;17871;31.584;74.450;2023-02-28T13:14:30;99061.34;;;23.11;66.69
31239;BME280;17871;31.584;74.450;2023-02-28T13:17:11;99056.03;;;23.14;67.10
31239;BME280;17871;31.584;74.450;2023-02-28T13:22:36;99050.72;;;23.17;66.94
31239;BME280;17871;31.584;74.450;2023-02-28T13:28:12;99062.59;;;22.99;67.65
31239;BME280;17871;31.584;74.450;2023-02-28T13:34:04;99073.44;;;23.13;67.39
31239;BME280;17871;31.584;74.450;2023-02-28T13:36:27;99082.88;;;22.90;67.89
31239;BME280;17871;31.584;74.450;2023-02-28T13:39:00;99082.69;;;22.96;67.63
31239;BME280;17871;31.584;74.450;2023-02-28T13:44:17;99079.34;;;23.18;66.81
31239;BME280;17871;31.584;74.450;2023-02-28T13:49:24;99075.19;;;23.13;66.88
31239;BME280;17871;31.584;74.450;2023-02-28T14:01:14;99077.44;;;23.23;66.74
31239;BME280;17871;31.584;74.450;2023-02-28T14:06:34;99070.69;;;23.18;66.66
31239;BME280;17871;31.584;74.450;2023-02-28T14:09:15;99078.69;;;23.12;66.29
31239;BME280;17871;31.584;74.450;2023-02-28T14:11:46;99079.34;;;23.18;66.43
31239;BME280;17871;31.584;74.450;2023-02-28T14:17:08;99088.00;;;23.19;67.63
31239;BME280;17871;31.584;74.450;2023-02-28T14:19:46;99091.47;;;23.19;67.76
31239;BME280;17871;31.584;74.450;2023-02-28T14:39:05;99124.03;;;23.08;68.12
31239;BME280;17871;31.584;74.450;2023-02-28T14:41:38;99128.03;;;22.92;68.35
31239;BME280;17871;31.584;74.450;2023-02-28T14:46:43;99130.03;;;22.82;68.60
31239;BME280;17871;31.584;74.450;2023-02-28T14:49:23;99135.31;;;22.79;68.87
31239;BME280;17871;31.584;74.450;2023-02-28T14:52:19;99139.44;;;22.88;68.56
31239;BME280;17871;31.584;74.450;2023-02-28T14:54:57;99142.22;;;22.82;69.10
31239;BME280;17871;31.584;74.450;2023-02-28T14:57:32;99143.91;;;22.83;69.07
31239;BME280;17871;31.584;74.450;2023-02-28T15:00:21;99146.25;;;22.92;68.86
31239;BME280;17871;31.584;74.450;2023-02-28T15:02:52;99147.06;;;22.64;69.68
31239;BME280;17871;31.584;74.450;2023-02-28T15:05:33;99152.06;;;22.72;69.75
31239;BME280;17871;31.584;74.450;2023-02-28T15:10:34;99172.28;;;22.62;69.83
31239;BME280;17871;31.584;74.450;2023-02-28T15:13:10;99175.28;;;22.80;69.75
31239;BME280;17871;31.584;74.450;2023-02-28T15:15:51;99180.69;;;22.73;70.32
31239;BME280;17871;31.584;74.450;2023-02-28T15:18:54;99188.47;;;22.75;70.33
31239;BME280;17871;31.584;74.450;2023-02-28T15:21:37;99185.81;;;22.77;70.46
31239;BME280;17871;31.584;74.450;2023-02-28T15:24:15;99196.66;;;22.60;70.58
31239;BME280;17871;31.584;74.450;2023-02-28T15:26:49;99183.25;;;22.43;71.50
31239;BME280;17871;31.584;74.450;2023-02-28T15:29:22;99188.44;;;22.44;71.56
31239;BME280;17871;31.584;74.450;2023-02-28T15:32:00;99186.72;;;22.43;71.84
31239;BME280;17871;31.584;74.450;2023-02-28T15:34:38;99185.25;;;22.65;71.10
31239;BME280;17871;31.584;74.450;2023-02-28T15:37:33;99191.19;;;22.70;70.79
31239;BME280;17871;31.584;74.450;2023-02-28T15:40:37;99199.72;;;22.75;70.39